sensor_id;sensor_type;location;lat;lon;timestamp;P1;durP1;ratioP1;P2;durP2;ratioP2
11671;SDS011;5892;43.412;24.612;2023-02-18T00:00:53;12.47;;;9.73;;
11671;SDS011;5892;43.412;24.612;2023-02-18T00:03:21;14.23;;;9.37;;
11671;SDS011;5892;43.412;24.612;2023-02-18T00:05:50;12.87;;;8.00;;
11671;SDS011;5892;43.412;24.612;2023-02-18T00:08:17;11.70;;;8.90;;
11671;SDS011;5892;43.412;24.612;2023-02-18T00:10:44;12.10;;;8.53;;
11671;SDS011;5892;43.412;24.612;2023-02-18T00:13:11;12.07;;;8.83;;
11671;SDS011;5892;43.412;24.612;2023-02-18T00:15:38;14.37;;;9.27;;
11671;SDS011;5892;43.412;24.612;2023-02-18T00:18:05;10.60;;;8.70;;
11671;SDS011;5892;43.412;24.612;2023-02-18T00:20:34;9.87;;;8.10;;
11671;SDS011;5892;43.412;24.612;2023-02-18T00:23:02;10.40;;;8.20;;
11671;SDS011;5892;43.412;24.612;2023-02-18T00:25:29;11.03;;;7.67;;
11671;SDS011;5892;43.412;24.612;2023-02-18T00:27:56;10.60;;;7.97;;
11671;SDS011;5892;43.412;24.612;2023-02-18T00:30:23;10.83;;;7.93;;
11671;SDS011;5892;43.412;24.612;2023-02-18T00:32:50;10.97;;;8.00;;
11671;SDS011;5892;43.412;24.612;2023-02-18T00:35:16;13.00;;;8.67;;
11671;SDS011;5892;43.412;24.612;2023-02-18T00:37:44;11.43;;;8.50;;
11671;SDS011;5892;43.412;24.612;2023-02-18T00:40:12;12.63;;;9.20;;
11671;SDS011;5892;43.412;24.612;2023-02-18T00:42:39;12.00;;;8.63;;
11671;SDS011;5892;43.412;24.612;2023-02-18T00:45:06;11.30;;;8.40;;
11671;SDS011;5892;43.412;24.612;2023-02-18T00:47:33;11.93;;;9.10;;
11671;SDS011;5892;43.412;24.612;2023-02-18T00:50:00;11.90;;;9.07;;
11671;SDS011;5892;43.412;24.612;2023-02-18T00:52:27;12.87;;;9.00;;
11671;SDS011;5892;43.412;24.612;2023-02-18T00:54:54;12.43;;;8.67;;
11671;SDS011;5892;43.412;24.612;2023-02-18T00:57:22;11.33;;;8.33;;
11671;SDS011;5892;43.412;24.612;2023-02-18T00:59:49;12.17;;;9.40;;
11671;SDS011;5892;43.412;24.612;2023-02-18T01:02:16;10.77;;;8.37;;
11671;SDS011;5892;43.412;24.612;2023-02-18T01:04:46;12.60;;;8.90;;
11671;SDS011;5892;43.412;24.612;2023-02-18T01:07:12;10.80;;;8.13;;
11671;SDS011;5892;43.412;24.612;2023-02-18T01:09:39;14.13;;;9.70;;
11671;SDS011;5892;43.412;24.612;2023-02-18T01:12:06;14.90;;;11.13;;
11671;SDS011;5892;43.412;24.612;2023-02-18T01:14:34;12.97;;;10.73;;
11671;SDS011;5892;43.412;24.612;2023-02-18T01:17:01;14.80;;;11.27;;
11671;SDS011;5892;43.412;24.612;2023-02-18T01:19:28;16.17;;;10.73;;
11671;SDS011;5892;43.412;24.612;2023-02-18T01:21:55;14.10;;;10.23;;
11671;SDS011;5892;43.412;24.612;2023-02-18T01:24:22;13.67;;;10.33;;
11671;SDS011;5892;43.412;24.612;2023-02-18T01:26:49;13.30;;;10.67;;
11671;SDS011;5892;43.412;24.612;2023-02-18T01:29:16;14.87;;;11.03;;
11671;SDS011;5892;43.412;24.612;2023-02-18T01:31:44;14.20;;;10.80;;
11671;SDS011;5892;43.412;24.612;2023-02-18T01:34:11;15.87;;;10.73;;
11671;SDS011;5892;43.412;24.612;2023-02-18T01:36:38;13.27;;;9.10;;
11671;SDS011;5892;43.412;24.612;2023-02-18T01:39:04;11.33;;;8.57;;
11671;SDS011;5892;43.412;24.612;2023-02-18T01:41:31;10.37;;;7.83;;
11671;SDS011;5892;43.412;24.612;2023-02-18T01:44:14;11.97;;;8.80;;
11671;SDS011;5892;43.412;24.612;2023-02-18T01:46:44;13.30;;;10.60;;
11671;SDS011;5892;43.412;24.612;2023-02-18T01:49:12;12.93;;;11.10;;
11671;SDS011;5892;43.412;24.612;2023-02-18T01:51:43;12.03;;;8.57;;
11671;SDS011;5892;43.412;24.612;2023-02-18T01:54:13;12.47;;;10.50;;
11671;SDS011;5892;43.412;24.612;2023-02-18T01:56:44;19.70;;;11.80;;
11671;SDS011;5892;43.412;24.612;2023-02-18T01:59:15;17.17;;;11.37;;
11671;SDS011;5892;43.412;24.612;2023-02-18T02:01:48;14.17;;;9.70;;
11671;SDS011;5892;43.412;24.612;2023-02-18T02:04:15;11.60;;;8.87;;
11671;SDS011;5892;43.412;24.612;2023-02-18T02:06:43;12.33;;;8.80;;
11671;SDS011;5892;43.412;24.612;2023-02-18T02:09:10;14.93;;;9.10;;
11671;SDS011;5892;43.412;24.612;2023-02-18T02:11:44;14.07;;;9.00;;
11671;SDS011;5892;43.412;24.612;2023-02-18T02:14:28;10.00;;;7.17;;
11671;SDS011;5892;43.412;24.612;2023-02-18T02:17:08;11.10;;;7.27;;
11671;SDS011;5892;43.412;24.612;2023-02-18T02:19:50;9.60;;;7.33;;
11671;SDS011;5892;43.412;24.612;2023-02-18T02:29:23;13.57;;;7.60;;
11671;SDS011;5892;43.412;24.612;2023-02-18T02:32:11;7.03;;;6.07;;
11671;SDS011;5892;43.412;24.612;2023-02-18T02:34:55;11.40;;;7.00;;
11671;SDS011;5892;43.412;24.612;2023-02-18T02:37:28;9.50;;;6.87;;
11671;SDS011;5892;43.412;24.612;2023-02-18T02:40:06;10.90;;;8.00;;
11671;SDS011;5892;43.412;24.612;2023-02-18T02:42:45;11.07;;;7.63;;
11671;SDS011;5892;43.412;24.612;2023-02-18T02:45:25;11.17;;;6.73;;
11671;SDS011;5892;43.412;24.612;2023-02-18T02:48:02;10.37;;;6.60;;
11671;SDS011;5892;43.412;24.612;2023-02-18T02:50:39;9.20;;;6.50;;
11671;SDS011;5892;43.412;24.612;2023-02-18T02:53:13;9.50;;;6.67;;
11671;SDS011;5892;43.412;24.612;2023-02-18T02:55:44;8.57;;;6.53;;
11671;SDS011;5892;43.412;24.612;2023-02-18T02:58:12;8.43;;;6.47;;
11671;SDS011;5892;43.412;24.612;2023-02-18T03:00:46;9.03;;;6.50;;
11671;SDS011;5892;43.412;24.612;2023-02-18T03:03:35;10.43;;;6.63;;
11671;SDS011;5892;43.412;24.612;2023-02-18T03:06:33;8.50;;;6.27;;
11671;SDS011;5892;43.412;24.612;2023-02-18T03:09:22;8.20;;;5.70;;
11671;SDS011;5892;43.412;24.612;2023-02-18T03:11:57;7.63;;;5.87;;
11671;SDS011;5892;43.412;24.612;2023-02-18T03:14:33;7.27;;;5.57;;
11671;SDS011;5892;43.412;24.612;2023-02-18T03:17:09;6.63;;;5.53;;
11671;SDS011;5892;43.412;24.612;2023-02-18T03:19:41;8.30;;;5.50;;
11671;SDS011;5892;43.412;24.612;2023-02-18T03:22:15;8.33;;;5.80;;
11671;SDS011;5892;43.412;24.612;2023-02-18T03:24:45;8.13;;;5.90;;
11671;SDS011;5892;43.412;24.612;2023-02-18T03:27:16;6.83;;;5.30;;
11671;SDS011;5892;43.412;24.612;2023-02-18T03:29:48;8.67;;;5.53;;
11671;SDS011;5892;43.412;24.612;2023-02-18T03:32:19;7.53;;;5.43;;
11671;SDS011;5892;43.412;24.612;2023-02-18T03:34:49;6.43;;;5.30;;
11671;SDS011;5892;43.412;24.612;2023-02-18T03:37:20;6.30;;;5.30;;
11671;SDS011;5892;43.412;24.612;2023-02-18T03:39:48;7.33;;;5.47;;
11671;SDS011;5892;43.412;24.612;2023-02-18T03:42:23;8.80;;;6.00;;
11671;SDS011;5892;43.412;24.612;2023-02-18T03:44:51;7.87;;;5.73;;
11671;SDS011;5892;43.412;24.612;2023-02-18T03:47:18;10.03;;;5.63;;
11671;SDS011;5892;43.412;24.612;2023-02-18T03:49:45;6.40;;;5.10;;
11671;SDS011;5892;43.412;24.612;2023-02-18T03:52:12;7.77;;;5.57;;
11671;SDS011;5892;43.412;24.612;2023-02-18T03:54:42;6.00;;;4.73;;
11671;SDS011;5892;43.412;24.612;2023-02-18T03:57:09;7.83;;;5.60;;
11671;SDS011;5892;43.412;24.612;2023-02-18T03:59:36;7.83;;;5.90;;
11671;SDS011;5892;43.412;24.612;2023-02-18T04:02:03;7.67;;;5.30;;
11671;SDS011;5892;43.412;24.612;2023-02-18T04:04:30;6.70;;;5.37;;
11671;SDS011;5892;43.412;24.612;2023-02-18T04:06:57;7.73;;;5.37;;
11671;SDS011;5892;43.412;24.612;2023-02-18T04:09:23;7.50;;;5.00;;
11671;SDS011;5892;43.412;24.612;2023-02-18T04:11:52;7.97;;;5.70;;
11671;SDS011;5892;43.412;24.612;2023-02-18T04:14:19;7.53;;;5.67;;
11671;SDS011;5892;43.412;24.612;2023-02-18T04:16:45;7.50;;;5.40;;
11671;SDS011;5892;43.412;24.612;2023-02-18T04:19:13;9.37;;;5.70;;
11671;SDS011;5892;43.412;24.612;2023-02-18T04:21:39;9.40;;;5.70;;
11671;SDS011;5892;43.412;24.612;2023-02-18T04:24:06;5.57;;;4.93;;
11671;SDS011;5892;43.412;24.612;2023-02-18T04:26:33;7.10;;;5.23;;
11671;SDS011;5892;43.412;24.612;2023-02-18T04:29:01;8.00;;;5.30;;
11671;SDS011;5892;43.412;24.612;2023-02-18T04:31:28;8.17;;;5.77;;
11671;SDS011;5892;43.412;24.612;2023-02-18T04:33:55;7.87;;;5.40;;
11671;SDS011;5892;43.412;24.612;2023-02-18T04:36:22;8.47;;;5.00;;
11671;SDS011;5892;43.412;24.612;2023-02-18T04:38:49;8.47;;;5.40;;
11671;SDS011;5892;43.412;24.612;2023-02-18T04:41:15;6.63;;;5.33;;
11671;SDS011;5892;43.412;24.612;2023-02-18T04:43:42;6.73;;;5.50;;
11671;SDS011;5892;43.412;24.612;2023-02-18T04:46:10;8.00;;;6.00;;
11671;SDS011;5892;43.412;24.612;2023-02-18T04:48:37;7.63;;;5.67;;
11671;SDS011;5892;43.412;24.612;2023-02-18T04:51:04;7.03;;;5.23;;
11671;SDS011;5892;43.412;24.612;2023-02-18T04:53:31;6.30;;;5.33;;
11671;SDS011;5892;43.412;24.612;2023-02-18T04:55:58;8.30;;;5.30;;
11671;SDS011;5892;43.412;24.612;2023-02-18T04:58:26;6.87;;;5.27;;
11671;SDS011;5892;43.412;24.612;2023-02-18T05:00:52;6.47;;;5.40;;
11671;SDS011;5892;43.412;24.612;2023-02-18T05:03:25;7.90;;;5.30;;
11671;SDS011;5892;43.412;24.612;2023-02-18T05:05:52;8.20;;;5.37;;
11671;SDS011;5892;43.412;24.612;2023-02-18T05:08:19;9.33;;;6.00;;
11671;SDS011;5892;43.412;24.612;2023-02-18T05:10:45;9.17;;;5.40;;
11671;SDS011;5892;43.412;24.612;2023-02-18T05:13:12;7.03;;;5.30;;
11671;SDS011;5892;43.412;24.612;2023-02-18T05:15:39;9.77;;;5.10;;
11671;SDS011;5892;43.412;24.612;2023-02-18T05:18:06;9.33;;;5.37;;
11671;SDS011;5892;43.412;24.612;2023-02-18T05:20:34;8.93;;;5.17;;
11671;SDS011;5892;43.412;24.612;2023-02-18T05:23:01;8.50;;;5.60;;
11671;SDS011;5892;43.412;24.612;2023-02-18T05:25:28;10.73;;;5.13;;
11671;SDS011;5892;43.412;24.612;2023-02-18T05:27:55;6.97;;;5.00;;
11671;SDS011;5892;43.412;24.612;2023-02-18T05:30:22;7.33;;;4.93;;
11671;SDS011;5892;43.412;24.612;2023-02-18T05:32:49;6.37;;;4.87;;
11671;SDS011;5892;43.412;24.612;2023-02-18T05:35:16;6.67;;;4.70;;
11671;SDS011;5892;43.412;24.612;2023-02-18T05:37:44;7.17;;;4.40;;
11671;SDS011;5892;43.412;24.612;2023-02-18T05:40:11;10.33;;;5.40;;
11671;SDS011;5892;43.412;24.612;2023-02-18T05:42:38;8.80;;;4.97;;
11671;SDS011;5892;43.412;24.612;2023-02-18T05:45:05;7.40;;;4.70;;
11671;SDS011;5892;43.412;24.612;2023-02-18T05:47:32;6.33;;;4.90;;
11671;SDS011;5892;43.412;24.612;2023-02-18T05:49:59;7.73;;;4.77;;
11671;SDS011;5892;43.412;24.612;2023-02-18T05:52:26;8.03;;;5.30;;
11671;SDS011;5892;43.412;24.612;2023-02-18T05:54:54;7.77;;;4.90;;
11671;SDS011;5892;43.412;24.612;2023-02-18T05:57:21;6.90;;;5.20;;
11671;SDS011;5892;43.412;24.612;2023-02-18T05:59:48;7.67;;;4.87;;
11671;SDS011;5892;43.412;24.612;2023-02-18T06:02:15;7.87;;;6.77;;
11671;SDS011;5892;43.412;24.612;2023-02-18T06:04:42;9.47;;;5.20;;
11671;SDS011;5892;43.412;24.612;2023-02-18T06:07:09;6.03;;;4.90;;
11671;SDS011;5892;43.412;24.612;2023-02-18T06:09:36;8.57;;;4.67;;
11671;SDS011;5892;43.412;24.612;2023-02-18T06:12:05;6.63;;;5.80;;
11671;SDS011;5892;43.412;24.612;2023-02-18T06:14:32;7.37;;;5.20;;
11671;SDS011;5892;43.412;24.612;2023-02-18T06:16:59;6.90;;;4.80;;
11671;SDS011;5892;43.412;24.612;2023-02-18T06:19:25;7.27;;;5.07;;
11671;SDS011;5892;43.412;24.612;2023-02-18T06:21:52;8.00;;;5.20;;
11671;SDS011;5892;43.412;24.612;2023-02-18T06:24:20;7.03;;;4.87;;
11671;SDS011;5892;43.412;24.612;2023-02-18T06:26:47;9.47;;;5.27;;
11671;SDS011;5892;43.412;24.612;2023-02-18T06:29:15;7.83;;;4.83;;
11671;SDS011;5892;43.412;24.612;2023-02-18T06:31:42;6.27;;;4.73;;
11671;SDS011;5892;43.412;24.612;2023-02-18T06:34:09;9.73;;;5.37;;
11671;SDS011;5892;43.412;24.612;2023-02-18T06:36:36;7.87;;;4.87;;
11671;SDS011;5892;43.412;24.612;2023-02-18T06:39:03;5.57;;;4.70;;
11671;SDS011;5892;43.412;24.612;2023-02-18T06:41:30;5.47;;;4.73;;
11671;SDS011;5892;43.412;24.612;2023-02-18T06:43:57;7.40;;;5.10;;
11671;SDS011;5892;43.412;24.612;2023-02-18T06:46:26;9.27;;;4.77;;
11671;SDS011;5892;43.412;24.612;2023-02-18T06:48:52;7.47;;;5.40;;
11671;SDS011;5892;43.412;24.612;2023-02-18T06:51:19;8.23;;;4.90;;
11671;SDS011;5892;43.412;24.612;2023-02-18T06:53:46;8.07;;;5.80;;
11671;SDS011;5892;43.412;24.612;2023-02-18T06:56:13;12.83;;;8.27;;
11671;SDS011;5892;43.412;24.612;2023-02-18T06:58:40;7.87;;;5.53;;
11671;SDS011;5892;43.412;24.612;2023-02-18T07:01:07;7.33;;;4.80;;
11671;SDS011;5892;43.412;24.612;2023-02-18T07:03:35;9.87;;;5.03;;
11671;SDS011;5892;43.412;24.612;2023-02-18T07:06:02;10.30;;;5.30;;
11671;SDS011;5892;43.412;24.612;2023-02-18T07:08:30;8.67;;;5.90;;
11671;SDS011;5892;43.412;24.612;2023-02-18T07:10:57;10.03;;;5.47;;
11671;SDS011;5892;43.412;24.612;2023-02-18T07:13:24;9.20;;;5.00;;
11671;SDS011;5892;43.412;24.612;2023-02-18T07:15:50;6.87;;;4.80;;
11671;SDS011;5892;43.412;24.612;2023-02-18T07:18:17;8.57;;;4.53;;
11671;SDS011;5892;43.412;24.612;2023-02-18T07:20:46;6.57;;;4.70;;
11671;SDS011;5892;43.412;24.612;2023-02-18T07:23:12;9.93;;;4.90;;
11671;SDS011;5892;43.412;24.612;2023-02-18T07:25:39;9.47;;;5.00;;
11671;SDS011;5892;43.412;24.612;2023-02-18T07:28:06;5.27;;;4.20;;
11671;SDS011;5892;43.412;24.612;2023-02-18T07:30:33;6.73;;;4.03;;
11671;SDS011;5892;43.412;24.612;2023-02-18T07:33:00;6.77;;;4.80;;
11671;SDS011;5892;43.412;24.612;2023-02-18T07:35:27;6.70;;;4.33;;
11671;SDS011;5892;43.412;24.612;2023-02-18T07:37:55;5.83;;;4.33;;
11671;SDS011;5892;43.412;24.612;2023-02-18T07:40:22;8.83;;;4.20;;
11671;SDS011;5892;43.412;24.612;2023-02-18T07:42:49;8.07;;;4.50;;
11671;SDS011;5892;43.412;24.612;2023-02-18T07:45:16;4.50;;;3.93;;
11671;SDS011;5892;43.412;24.612;2023-02-18T07:47:43;7.67;;;4.23;;
11671;SDS011;5892;43.412;24.612;2023-02-18T07:50:10;8.80;;;4.70;;
11671;SDS011;5892;43.412;24.612;2023-02-18T07:52:37;8.40;;;4.00;;
11671;SDS011;5892;43.412;24.612;2023-02-18T07:55:06;6.47;;;4.43;;
11671;SDS011;5892;43.412;24.612;2023-02-18T07:57:33;5.37;;;4.17;;
11671;SDS011;5892;43.412;24.612;2023-02-18T08:00:21;7.50;;;4.37;;
11671;SDS011;5892;43.412;24.612;2023-02-18T08:02:49;16.63;;;4.70;;
11671;SDS011;5892;43.412;24.612;2023-02-18T08:05:16;13.27;;;4.17;;
11671;SDS011;5892;43.412;24.612;2023-02-18T08:07:43;7.07;;;4.40;;
11671;SDS011;5892;43.412;24.612;2023-02-18T08:10:12;12.60;;;4.10;;
11671;SDS011;5892;43.412;24.612;2023-02-18T08:12:39;6.90;;;4.07;;
11671;SDS011;5892;43.412;24.612;2023-02-18T08:15:06;7.23;;;4.27;;
11671;SDS011;5892;43.412;24.612;2023-02-18T08:17:33;5.43;;;4.00;;
11671;SDS011;5892;43.412;24.612;2023-02-18T08:20:00;6.73;;;4.03;;
11671;SDS011;5892;43.412;24.612;2023-02-18T08:22:27;6.33;;;4.20;;
11671;SDS011;5892;43.412;24.612;2023-02-18T08:24:54;12.53;;;4.00;;
11671;SDS011;5892;43.412;24.612;2023-02-18T08:27:23;6.13;;;3.80;;
11671;SDS011;5892;43.412;24.612;2023-02-18T08:29:50;7.00;;;3.97;;
11671;SDS011;5892;43.412;24.612;2023-02-18T08:32:18;6.83;;;3.80;;
11671;SDS011;5892;43.412;24.612;2023-02-18T08:34:45;8.03;;;3.60;;
11671;SDS011;5892;43.412;24.612;2023-02-18T08:37:12;8.77;;;3.70;;
11671;SDS011;5892;43.412;24.612;2023-02-18T08:39:39;8.87;;;3.67;;
11671;SDS011;5892;43.412;24.612;2023-02-18T08:42:05;4.93;;;3.63;;
11671;SDS011;5892;43.412;24.612;2023-02-18T08:44:34;7.67;;;3.40;;
11671;SDS011;5892;43.412;24.612;2023-02-18T08:47:01;6.17;;;3.97;;
11671;SDS011;5892;43.412;24.612;2023-02-18T08:49:28;5.70;;;4.00;;
11671;SDS011;5892;43.412;24.612;2023-02-18T08:51:54;6.30;;;3.87;;
11671;SDS011;5892;43.412;24.612;2023-02-18T08:54:21;8.17;;;3.90;;
11671;SDS011;5892;43.412;24.612;2023-02-18T08:56:52;9.50;;;3.40;;
11671;SDS011;5892;43.412;24.612;2023-02-18T08:59:19;13.77;;;4.03;;
11671;SDS011;5892;43.412;24.612;2023-02-18T09:01:49;6.17;;;3.47;;
11671;SDS011;5892;43.412;24.612;2023-02-18T09:04:17;6.10;;;3.77;;
11671;SDS011;5892;43.412;24.612;2023-02-18T09:06:45;9.27;;;3.73;;
11671;SDS011;5892;43.412;24.612;2023-02-18T09:09:12;10.77;;;4.30;;
11671;SDS011;5892;43.412;24.612;2023-02-18T09:11:39;49.47;;;5.57;;
11671;SDS011;5892;43.412;24.612;2023-02-18T09:14:06;12.53;;;3.90;;
11671;SDS011;5892;43.412;24.612;2023-02-18T09:16:33;5.20;;;3.40;;
11671;SDS011;5892;43.412;24.612;2023-02-18T09:19:01;13.20;;;3.73;;
11671;SDS011;5892;43.412;24.612;2023-02-18T09:21:28;13.53;;;4.33;;
11671;SDS011;5892;43.412;24.612;2023-02-18T09:23:55;11.60;;;4.23;;
11671;SDS011;5892;43.412;24.612;2023-02-18T09:26:23;24.40;;;4.37;;
11671;SDS011;5892;43.412;24.612;2023-02-18T09:28:52;18.53;;;4.63;;
11671;SDS011;5892;43.412;24.612;2023-02-18T09:31:21;13.77;;;4.73;;
11671;SDS011;5892;43.412;24.612;2023-02-18T09:33:51;34.37;;;5.20;;
11671;SDS011;5892;43.412;24.612;2023-02-18T09:36:20;20.33;;;5.03;;
11671;SDS011;5892;43.412;24.612;2023-02-18T09:38:47;11.93;;;4.00;;
11671;SDS011;5892;43.412;24.612;2023-02-18T09:41:16;7.50;;;4.07;;
11671;SDS011;5892;43.412;24.612;2023-02-18T09:43:53;8.73;;;4.10;;
11671;SDS011;5892;43.412;24.612;2023-02-18T09:46:23;10.43;;;3.77;;
11671;SDS011;5892;43.412;24.612;2023-02-18T09:48:55;9.00;;;4.13;;
11671;SDS011;5892;43.412;24.612;2023-02-18T09:51:24;6.07;;;4.03;;
11671;SDS011;5892;43.412;24.612;2023-02-18T09:53:51;7.43;;;4.10;;
11671;SDS011;5892;43.412;24.612;2023-02-18T09:56:19;18.13;;;5.03;;
11671;SDS011;5892;43.412;24.612;2023-02-18T09:58:51;8.60;;;3.80;;
11671;SDS011;5892;43.412;24.612;2023-02-18T10:01:21;6.53;;;3.80;;
11671;SDS011;5892;43.412;24.612;2023-02-18T10:03:53;9.00;;;3.90;;
11671;SDS011;5892;43.412;24.612;2023-02-18T10:06:25;16.03;;;4.10;;
11671;SDS011;5892;43.412;24.612;2023-02-18T10:08:55;8.30;;;4.03;;
11671;SDS011;5892;43.412;24.612;2023-02-18T10:11:27;9.77;;;4.33;;
11671;SDS011;5892;43.412;24.612;2023-02-18T10:13:56;8.77;;;3.93;;
11671;SDS011;5892;43.412;24.612;2023-02-18T10:16:26;13.40;;;4.27;;
11671;SDS011;5892;43.412;24.612;2023-02-18T10:18:55;52.10;;;5.60;;
11671;SDS011;5892;43.412;24.612;2023-02-18T10:21:25;10.13;;;4.27;;
11671;SDS011;5892;43.412;24.612;2023-02-18T10:23:58;8.83;;;4.20;;
11671;SDS011;5892;43.412;24.612;2023-02-18T10:26:30;12.17;;;4.40;;
11671;SDS011;5892;43.412;24.612;2023-02-18T10:29:00;5.63;;;4.03;;
11671;SDS011;5892;43.412;24.612;2023-02-18T10:31:28;7.77;;;3.70;;
11671;SDS011;5892;43.412;24.612;2023-02-18T10:33:59;20.57;;;4.90;;
11671;SDS011;5892;43.412;24.612;2023-02-18T10:36:40;17.73;;;4.50;;
11671;SDS011;5892;43.412;24.612;2023-02-18T10:39:19;14.13;;;4.10;;
11671;SDS011;5892;43.412;24.612;2023-02-18T10:42:01;5.37;;;3.80;;
11671;SDS011;5892;43.412;24.612;2023-02-18T10:44:40;11.47;;;3.97;;
11671;SDS011;5892;43.412;24.612;2023-02-18T10:47:20;25.23;;;4.93;;
11671;SDS011;5892;43.412;24.612;2023-02-18T10:50:00;14.30;;;4.27;;
11671;SDS011;5892;43.412;24.612;2023-02-18T10:52:32;6.47;;;4.20;;
11671;SDS011;5892;43.412;24.612;2023-02-18T10:55:05;9.83;;;4.07;;
11671;SDS011;5892;43.412;24.612;2023-02-18T10:57:33;7.77;;;3.93;;
11671;SDS011;5892;43.412;24.612;2023-02-18T11:00:02;9.57;;;4.07;;
11671;SDS011;5892;43.412;24.612;2023-02-18T11:02:40;9.33;;;4.40;;
11671;SDS011;5892;43.412;24.612;2023-02-18T11:05:16;11.10;;;4.20;;
11671;SDS011;5892;43.412;24.612;2023-02-18T11:07:49;10.97;;;4.87;;
11671;SDS011;5892;43.412;24.612;2023-02-18T11:10:18;10.80;;;4.40;;
11671;SDS011;5892;43.412;24.612;2023-02-18T11:12:50;10.20;;;4.60;;
11671;SDS011;5892;43.412;24.612;2023-02-18T11:15:21;7.67;;;4.67;;
11671;SDS011;5892;43.412;24.612;2023-02-18T11:17:50;15.43;;;4.43;;
11671;SDS011;5892;43.412;24.612;2023-02-18T11:20:24;9.97;;;4.73;;
11671;SDS011;5892;43.412;24.612;2023-02-18T11:23:13;15.97;;;5.53;;
11671;SDS011;5892;43.412;24.612;2023-02-18T11:25:51;8.20;;;4.67;;
11671;SDS011;5892;43.412;24.612;2023-02-18T11:28:28;8.57;;;4.70;;
11671;SDS011;5892;43.412;24.612;2023-02-18T11:31:00;8.80;;;4.07;;
11671;SDS011;5892;43.412;24.612;2023-02-18T11:33:31;7.97;;;4.00;;
11671;SDS011;5892;43.412;24.612;2023-02-18T11:36:02;13.20;;;5.47;;
11671;SDS011;5892;43.412;24.612;2023-02-18T11:38:42;8.50;;;4.80;;
11671;SDS011;5892;43.412;24.612;2023-02-18T11:41:14;11.93;;;5.23;;
11671;SDS011;5892;43.412;24.612;2023-02-18T11:43:44;9.33;;;4.33;;
11671;SDS011;5892;43.412;24.612;2023-02-18T11:46:14;11.87;;;4.80;;
11671;SDS011;5892;43.412;24.612;2023-02-18T11:48:43;20.40;;;4.33;;
11671;SDS011;5892;43.412;24.612;2023-02-18T11:51:15;24.43;;;4.67;;
11671;SDS011;5892;43.412;24.612;2023-02-18T11:53:55;11.30;;;4.40;;
11671;SDS011;5892;43.412;24.612;2023-02-18T11:56:24;9.50;;;4.50;;
11671;SDS011;5892;43.412;24.612;2023-02-18T11:58:52;11.33;;;3.90;;
11671;SDS011;5892;43.412;24.612;2023-02-18T12:01:23;6.63;;;4.30;;
11671;SDS011;5892;43.412;24.612;2023-02-18T12:03:57;31.13;;;5.40;;
11671;SDS011;5892;43.412;24.612;2023-02-18T12:06:32;12.90;;;4.47;;
11671;SDS011;5892;43.412;24.612;2023-02-18T12:09:04;7.23;;;3.80;;
11671;SDS011;5892;43.412;24.612;2023-02-18T12:11:39;9.63;;;4.30;;
11671;SDS011;5892;43.412;24.612;2023-02-18T12:14:11;5.27;;;4.10;;
11671;SDS011;5892;43.412;24.612;2023-02-18T12:16:44;17.17;;;4.40;;
11671;SDS011;5892;43.412;24.612;2023-02-18T12:19:24;5.80;;;3.70;;
11671;SDS011;5892;43.412;24.612;2023-02-18T12:22:11;9.83;;;4.20;;
11671;SDS011;5892;43.412;24.612;2023-02-18T12:24:51;5.47;;;3.83;;
11671;SDS011;5892;43.412;24.612;2023-02-18T12:27:30;16.23;;;4.00;;
11671;SDS011;5892;43.412;24.612;2023-02-18T12:33:04;11.70;;;4.43;;
11671;SDS011;5892;43.412;24.612;2023-02-18T12:35:45;7.10;;;3.77;;
11671;SDS011;5892;43.412;24.612;2023-02-18T12:41:30;10.27;;;3.73;;
11671;SDS011;5892;43.412;24.612;2023-02-18T12:44:08;10.20;;;4.03;;
11671;SDS011;5892;43.412;24.612;2023-02-18T12:46:54;5.17;;;3.60;;
11671;SDS011;5892;43.412;24.612;2023-02-18T12:49:46;6.23;;;3.80;;
11671;SDS011;5892;43.412;24.612;2023-02-18T12:52:29;12.40;;;4.30;;
11671;SDS011;5892;43.412;24.612;2023-02-18T12:55:18;10.67;;;4.13;;
11671;SDS011;5892;43.412;24.612;2023-02-18T12:57:55;4.67;;;3.80;;
11671;SDS011;5892;43.412;24.612;2023-02-18T13:00:46;8.17;;;4.97;;
11671;SDS011;5892;43.412;24.612;2023-02-18T13:03:46;12.40;;;4.27;;
11671;SDS011;5892;43.412;24.612;2023-02-18T13:06:37;7.03;;;4.10;;
11671;SDS011;5892;43.412;24.612;2023-02-18T13:09:17;6.10;;;3.90;;
11671;SDS011;5892;43.412;24.612;2023-02-18T13:11:59;9.73;;;4.90;;
11671;SDS011;5892;43.412;24.612;2023-02-18T13:14:32;6.97;;;3.80;;
11671;SDS011;5892;43.412;24.612;2023-02-18T13:17:08;6.37;;;3.93;;
11671;SDS011;5892;43.412;24.612;2023-02-18T13:19:40;8.03;;;4.10;;
11671;SDS011;5892;43.412;24.612;2023-02-18T13:22:14;6.60;;;4.97;;
11671;SDS011;5892;43.412;24.612;2023-02-18T13:24:44;6.07;;;4.30;;
11671;SDS011;5892;43.412;24.612;2023-02-18T13:27:13;6.53;;;5.57;;
11671;SDS011;5892;43.412;24.612;2023-02-18T13:29:50;8.53;;;4.07;;
11671;SDS011;5892;43.412;24.612;2023-02-18T13:32:24;9.93;;;4.47;;
11671;SDS011;5892;43.412;24.612;2023-02-18T13:34:57;13.83;;;9.43;;
11671;SDS011;5892;43.412;24.612;2023-02-18T13:37:32;6.47;;;5.03;;
11671;SDS011;5892;43.412;24.612;2023-02-18T13:40:07;5.77;;;3.63;;
11671;SDS011;5892;43.412;24.612;2023-02-18T13:42:42;4.73;;;3.73;;
11671;SDS011;5892;43.412;24.612;2023-02-18T13:45:27;6.20;;;3.47;;
11671;SDS011;5892;43.412;24.612;2023-02-18T13:47:55;9.00;;;3.47;;
11671;SDS011;5892;43.412;24.612;2023-02-18T13:50:38;4.40;;;3.37;;
11671;SDS011;5892;43.412;24.612;2023-02-18T13:53:12;5.37;;;3.63;;
11671;SDS011;5892;43.412;24.612;2023-02-18T13:55:47;4.93;;;3.57;;
11671;SDS011;5892;43.412;24.612;2023-02-18T13:58:22;7.00;;;3.50;;
11671;SDS011;5892;43.412;24.612;2023-02-18T14:00:54;7.47;;;4.10;;
11671;SDS011;5892;43.412;24.612;2023-02-18T14:03:37;8.30;;;3.80;;
11671;SDS011;5892;43.412;24.612;2023-02-18T14:06:18;5.50;;;3.43;;
11671;SDS011;5892;43.412;24.612;2023-02-18T14:08:47;5.57;;;4.00;;
11671;SDS011;5892;43.412;24.612;2023-02-18T14:11:34;6.80;;;4.40;;
11671;SDS011;5892;43.412;24.612;2023-02-18T14:17:13;5.43;;;4.30;;
11671;SDS011;5892;43.412;24.612;2023-02-18T14:23:10;6.27;;;3.97;;
11671;SDS011;5892;43.412;24.612;2023-02-18T14:25:57;4.80;;;3.77;;
11671;SDS011;5892;43.412;24.612;2023-02-18T14:28:38;6.57;;;4.00;;
11671;SDS011;5892;43.412;24.612;2023-02-18T14:31:18;6.57;;;4.00;;
11671;SDS011;5892;43.412;24.612;2023-02-18T14:33:54;5.63;;;4.03;;
11671;SDS011;5892;43.412;24.612;2023-02-18T14:36:44;10.90;;;5.20;;
11671;SDS011;5892;43.412;24.612;2023-02-18T14:39:21;4.93;;;3.83;;
11671;SDS011;5892;43.412;24.612;2023-02-18T14:42:01;5.63;;;3.50;;
11671;SDS011;5892;43.412;24.612;2023-02-18T14:47:43;7.17;;;4.60;;
11671;SDS011;5892;43.412;24.612;2023-02-18T14:50:22;8.40;;;4.03;;
11671;SDS011;5892;43.412;24.612;2023-02-18T14:52:50;5.97;;;4.23;;
11671;SDS011;5892;43.412;24.612;2023-02-18T14:55:22;5.13;;;4.17;;
11671;SDS011;5892;43.412;24.612;2023-02-18T14:57:53;4.53;;;3.80;;
11671;SDS011;5892;43.412;24.612;2023-02-18T15:00:26;5.33;;;3.97;;
11671;SDS011;5892;43.412;24.612;2023-02-18T15:02:59;6.23;;;4.00;;
11671;SDS011;5892;43.412;24.612;2023-02-18T15:05:29;6.40;;;4.27;;
11671;SDS011;5892;43.412;24.612;2023-02-18T15:07:58;6.10;;;4.07;;
11671;SDS011;5892;43.412;24.612;2023-02-18T15:10:37;7.33;;;4.40;;
11671;SDS011;5892;43.412;24.612;2023-02-18T15:13:08;5.40;;;3.80;;
11671;SDS011;5892;43.412;24.612;2023-02-18T15:15:41;4.40;;;3.90;;
11671;SDS011;5892;43.412;24.612;2023-02-18T15:18:12;8.70;;;4.30;;
11671;SDS011;5892;43.412;24.612;2023-02-18T15:20:47;6.03;;;4.10;;
11671;SDS011;5892;43.412;24.612;2023-02-18T15:23:15;6.93;;;4.50;;
11671;SDS011;5892;43.412;24.612;2023-02-18T15:25:43;6.13;;;4.00;;
11671;SDS011;5892;43.412;24.612;2023-02-18T15:28:22;9.87;;;5.17;;